createdAt,value
2019-03-01T00:01:01.060Z,99647.34
2019-03-01T00:03:34.661Z,99655.05
2019-03-01T00:06:31.177Z,99655.12
2019-03-01T00:09:48.038Z,99653.98
2019-03-01T00:13:12.952Z,99656.09
2019-03-01T00:16:15.848Z,99651.50
2019-03-01T00:19:47.263Z,99651.50
2019-03-01T00:23:01.458Z,99648.11
2019-03-01T00:26:22.456Z,99645.02
2019-03-01T00:29:51.458Z,99647.08
2019-03-01T00:32:56.469Z,99640.31
2019-03-01T00:36:38.547Z,99640.95
2019-03-01T00:40:02.841Z,99639.16
2019-03-01T00:43:26.243Z,99645.57
2019-03-01T00:45:58.125Z,99633.57
2019-03-01T00:48:29.923Z,99637.40
2019-03-01T00:51:01.748Z,99634.11
2019-03-01T00:53:33.743Z,99634.48
2019-03-01T00:56:05.784Z,99632.75
2019-03-01T00:58:37.531Z,99621.98
2019-03-01T01:01:09.615Z,99619.37
2019-03-01T01:03:41.359Z,99626.42
2019-03-01T01:06:13.826Z,99618.91
2019-03-01T01:08:45.963Z,99626.04
2019-03-01T01:14:07.318Z,99630.13
2019-03-01T01:16:39.107Z,99626.04
2019-03-01T01:19:11.120Z,99626.32
2019-03-01T01:21:42.918Z,99630.58
2019-03-01T01:24:15.071Z,99634.61
2019-03-01T01:26:46.823Z,99621.96
2019-03-01T01:29:18.875Z,99633.44
2019-03-01T01:31:50.633Z,99632.39
2019-03-01T01:34:22.696Z,99634.45
2019-03-01T01:36:54.456Z,99627.83
2019-03-01T01:39:27.973Z,99629.70
2019-03-01T01:41:59.744Z,99637.30
2019-03-01T01:44:31.881Z,99636.00
2019-03-01T01:47:03.657Z,99649.20
2019-03-01T01:49:35.549Z,99648.95
2019-03-01T01:52:07.298Z,99654.12
2019-03-01T01:54:39.776Z,99648.89
2019-03-01T01:57:11.553Z,99655.31
2019-03-01T01:59:43.560Z,99651.34
2019-03-01T02:02:15.337Z,99651.25
2019-03-01T02:04:47.412Z,99650.13
2019-03-01T02:07:19.149Z,99649.20
2019-03-01T02:09:51.425Z,99654.21
2019-03-01T02:12:23.200Z,99648.80
2019-03-01T02:14:55.263Z,99657.69
2019-03-01T02:17:26.999Z,99661.41
2019-03-01T02:19:59.072Z,99657.52
2019-03-01T02:22:30.812Z,99656.48
2019-03-01T02:25:02.799Z,99653.05
2019-03-01T02:27:34.614Z,99656.34
2019-03-01T02:30:15.048Z,99648.57
2019-03-01T02:32:53.260Z,99650.87
2019-03-01T02:35:27.466Z,99644.70
2019-03-01T02:37:59.201Z,99644.70
2019-03-01T02:40:31.176Z,99636.69
2019-03-01T02:43:02.920Z,99642.62
2019-03-01T02:45:34.773Z,99648.86
2019-03-01T02:48:06.511Z,99647.81
2019-03-01T02:50:38.346Z,99641.98
2019-03-01T02:53:11.182Z,99646.46
2019-03-01T02:55:43.560Z,99645.57
2019-03-01T02:58:15.339Z,99651.72
2019-03-01T03:00:47.143Z,99656.38
2019-03-01T03:03:18.959Z,99660.08
2019-03-01T03:06:12.427Z,99653.73
2019-03-01T03:08:44.193Z,99655.84
2019-03-01T03:11:16.473Z,99653.67
2019-03-01T03:13:48.281Z,99650.31
2019-03-01T03:16:20.989Z,99655.14
2019-03-01T03:18:52.730Z,99657.30
2019-03-01T03:21:24.702Z,99666.08
2019-03-01T03:23:56.506Z,99665.51
2019-03-01T03:26:28.621Z,99664.67
2019-03-01T03:29:00.400Z,99657.95
2019-03-01T03:31:32.230Z,99660.48
2019-03-01T03:34:04.003Z,99660.97
2019-03-01T03:36:36.068Z,99658.93
2019-03-01T03:39:12.445Z,99659.36
2019-03-01T03:41:44.827Z,99655.09
2019-03-01T03:44:16.577Z,99658.60
2019-03-01T03:46:48.644Z,99667.38
2019-03-01T03:49:20.377Z,99661.67
2019-03-01T03:51:52.354Z,99665.95
2019-03-01T03:54:24.150Z,99662.84
2019-03-01T03:56:56.331Z,99665.83
2019-03-01T03:59:28.163Z,99665.83
2019-03-01T04:02:00.216Z,99664.52
2019-03-01T04:04:32.223Z,99657.46
2019-03-01T04:07:04.248Z,99657.59
2019-03-01T04:09:36.030Z,99661.89
2019-03-01T04:12:09.750Z,99664.45
2019-03-01T04:14:41.509Z,99654.16
2019-03-01T04:17:13.433Z,99650.75
2019-03-01T04:19:45.165Z,99650.16
2019-03-01T04:22:17.033Z,99652.94
2019-03-01T04:24:48.806Z,99655.35
2019-03-01T04:27:20.834Z,99652.11
2019-03-01T04:29:52.736Z,99658.18
2019-03-01T04:32:24.583Z,99666.27
2019-03-01T04:34:56.393Z,99672.74
2019-03-01T04:37:28.425Z,99668.02
2019-03-01T04:40:01.278Z,99676.19
2019-03-01T04:42:34.815Z,99675.70
2019-03-01T04:45:07.267Z,99673.55
2019-03-01T04:47:39.119Z,99675.73
2019-03-01T04:50:11.494Z,99676.91
2019-03-01T04:52:43.552Z,99678.98
2019-03-01T04:55:24.405Z,99680.28
2019-03-01T04:57:56.726Z,99690.20
2019-03-01T05:00:28.477Z,99687.91
2019-03-01T05:03:00.450Z,99674.13
2019-03-01T05:05:32.196Z,99680.13
2019-03-01T05:08:04.282Z,99689.88
2019-03-01T05:10:36.048Z,99686.92
2019-03-01T05:13:08.306Z,99694.80
2019-03-01T05:15:40.064Z,99693.31
2019-03-01T05:18:11.939Z,99686.27
2019-03-01T05:20:43.665Z,99695.37
2019-03-01T05:23:15.761Z,99691.91
2019-03-01T05:25:47.770Z,99689.99
2019-03-01T05:28:20.085Z,99690.05
2019-03-01T05:30:51.863Z,99694.69
2019-03-01T05:33:24.017Z,99700.18
2019-03-01T05:35:55.941Z,99710.38
2019-03-01T05:38:28.043Z,99715.67
2019-03-01T05:40:59.816Z,99711.63
2019-03-01T05:43:31.712Z,99705.41
2019-03-01T05:46:03.478Z,99710.69
2019-03-01T05:48:35.359Z,99713.30
2019-03-01T05:51:07.408Z,99713.66
2019-03-01T05:53:39.429Z,99709.27
2019-03-01T05:56:11.215Z,99716.34
2019-03-01T05:59:13.238Z,99718.10
2019-03-01T06:02:48.473Z,99718.21
2019-03-01T06:05:35.390Z,99725.00
2019-03-01T06:09:10.977Z,99722.66
2019-03-01T06:12:02.028Z,99726.59
2019-03-01T06:15:21.510Z,99734.77
2019-03-01T06:18:45.860Z,99725.97
2019-03-01T06:22:15.154Z,99727.61
2019-03-01T06:26:02.295Z,99732.70
2019-03-01T06:29:29.547Z,99737.40
2019-03-01T06:33:13.838Z,99748.34
2019-03-01T06:36:34.271Z,99751.70
2019-03-01T06:40:01.267Z,99765.01
2019-03-01T06:43:59.895Z,99766.14
2019-03-01T06:47:03.049Z,99765.30
2019-03-01T06:50:13.128Z,99771.64
2019-03-01T06:52:45.571Z,99766.27
2019-03-01T06:55:50.609Z,99762.37
2019-03-01T06:58:44.924Z,99757.19
2019-03-01T07:01:18.913Z,99751.26
2019-03-01T07:03:59.503Z,99753.01
2019-03-01T07:06:31.295Z,99751.23
2019-03-01T07:09:03.299Z,99749.53
2019-03-01T07:11:35.523Z,99746.84
2019-03-01T07:14:07.366Z,99741.52
2019-03-01T07:16:39.175Z,99748.14
2019-03-01T07:19:10.981Z,99752.27
2019-03-01T07:21:43.098Z,99746.73
2019-03-01T07:24:15.267Z,99749.25
2019-03-01T07:26:47.039Z,99755.66
2019-03-01T07:29:19.249Z,99762.73
2019-03-01T07:31:51.453Z,99759.23
2019-03-01T07:34:23.396Z,99763.25
2019-03-01T07:36:55.227Z,99755.87
2019-03-01T07:39:27.303Z,99761.25
2019-03-01T07:41:59.181Z,99762.36
2019-03-01T07:44:30.967Z,99755.99
2019-03-01T07:47:03.208Z,99756.58
2019-03-01T07:49:36.230Z,99758.98
2019-03-01T07:52:08.033Z,99774.13
2019-03-01T07:54:39.860Z,99769.97
2019-03-01T07:57:14.738Z,99766.73
2019-03-01T07:59:46.371Z,99769.06
2019-03-01T08:02:18.551Z,99771.08
2019-03-01T08:04:50.412Z,99769.02
2019-03-01T08:07:23.584Z,99775.98
2019-03-01T08:09:56.388Z,99774.88
2019-03-01T08:12:28.264Z,99777.36
2019-03-01T08:15:00.413Z,99778.40
2019-03-01T08:17:32.753Z,99783.02
2019-03-01T08:20:05.250Z,99772.08
2019-03-01T08:22:47.465Z,99776.83
2019-03-01T08:25:12.246Z,99782.95
2019-03-01T08:27:46.245Z,99783.48
2019-03-01T08:30:18.129Z,99780.81
2019-03-01T08:32:50.237Z,99779.42
2019-03-01T08:35:25.282Z,99781.80
2019-03-01T08:37:55.701Z,99786.22
2019-03-01T08:40:27.756Z,99778.00
2019-03-01T08:42:59.553Z,99771.25
2019-03-01T08:45:32.979Z,99781.38
2019-03-01T08:48:05.385Z,99780.61
2019-03-01T08:50:37.533Z,99782.56
2019-03-01T08:53:11.490Z,99776.90
2019-03-01T08:55:42.946Z,99783.55
2019-03-01T08:58:14.713Z,99782.72
2019-03-01T09:00:47.042Z,99779.91
2019-03-01T09:03:38.828Z,99782.64
2019-03-01T09:06:10.915Z,99788.31
2019-03-01T09:08:45.953Z,99786.88
2019-03-01T09:11:16.577Z,99786.94
2019-03-01T09:13:48.890Z,99794.61
2019-03-01T09:16:21.123Z,99790.84
2019-03-01T09:18:52.927Z,99788.54
2019-03-01T09:21:25.068Z,99792.52
2019-03-01T09:23:56.944Z,99793.45
2019-03-01T09:26:29.081Z,99801.38
2019-03-01T09:29:00.856Z,99796.46
2019-03-01T09:31:32.903Z,99799.78
2019-03-01T09:34:06.196Z,99797.95
2019-03-01T09:36:51.456Z,99797.67
2019-03-01T09:39:24.309Z,99789.11
2019-03-01T09:42:02.880Z,99801.19
2019-03-01T09:44:29.793Z,99789.33
2019-03-01T09:47:02.601Z,99801.35
2019-03-01T09:49:36.375Z,99800.34
2019-03-01T09:52:08.593Z,99798.70
2019-03-01T09:54:40.413Z,99786.97
2019-03-01T09:57:15.629Z,99789.55
2019-03-01T09:59:46.144Z,99794.83
2019-03-01T10:02:18.384Z,99790.84
2019-03-01T10:04:51.242Z,99791.64
2019-03-01T10:07:23.347Z,99791.72
2019-03-01T10:09:55.200Z,99797.05
2019-03-01T10:12:27.374Z,99794.63
2019-03-01T10:14:59.217Z,99797.48
2019-03-01T10:17:31.176Z,99793.41
2019-03-01T10:20:03.140Z,99791.75
2019-03-01T10:22:35.114Z,99784.52
2019-03-01T10:25:08.117Z,99782.78
2019-03-01T10:27:40.385Z,99782.58
2019-03-01T10:30:18.435Z,99786.20
2019-03-01T10:32:50.639Z,99787.25
2019-03-01T10:35:22.781Z,99782.73
2019-03-01T10:37:54.796Z,99782.09
2019-03-01T10:40:26.644Z,99777.31
2019-03-01T10:42:58.822Z,99781.62
2019-03-01T10:45:30.755Z,99778.52
2019-03-01T10:48:02.597Z,99775.97
2019-03-01T10:50:34.695Z,99785.27
2019-03-01T10:53:06.793Z,99776.56
2019-03-01T10:55:38.686Z,99777.95
2019-03-01T10:58:10.592Z,99774.74
2019-03-01T11:00:42.482Z,99778.25
2019-03-01T11:03:14.829Z,99781.70
2019-03-01T11:05:47.051Z,99782.91
2019-03-01T11:08:18.891Z,99785.28
2019-03-01T11:10:50.665Z,99781.22
2019-03-01T11:13:22.787Z,99783.14
2019-03-01T11:15:54.585Z,99785.84
2019-03-01T11:18:26.612Z,99781.69
2019-03-01T11:20:58.763Z,99780.40
2019-03-01T11:23:32.636Z,99777.84
2019-03-01T11:26:04.182Z,99786.09
2019-03-01T11:28:36.311Z,99779.43
2019-03-01T11:31:08.141Z,99778.36
2019-03-01T11:33:40.227Z,99780.33
2019-03-01T11:36:12.816Z,99772.09
2019-03-01T11:38:44.830Z,99779.00
2019-03-01T11:41:16.693Z,99777.69
2019-03-01T11:43:48.808Z,99774.78
2019-03-01T11:46:20.884Z,99771.00
2019-03-01T11:48:52.805Z,99770.47
2019-03-01T11:51:24.788Z,99766.39
2019-03-01T11:53:56.867Z,99765.05
2019-03-01T11:56:28.649Z,99771.94
2019-03-01T11:59:00.792Z,99762.98
2019-03-01T12:01:33.651Z,99757.55
2019-03-01T12:04:05.795Z,99761.37
2019-03-01T12:06:37.959Z,99760.70
2019-03-01T12:09:10.380Z,99757.43
2019-03-01T12:11:42.234Z,99764.28
2019-03-01T12:14:14.080Z,99756.96
2019-03-01T12:16:45.939Z,99756.67
2019-03-01T12:19:18.070Z,99757.11
2019-03-01T12:21:50.260Z,99758.31
2019-03-01T12:24:22.135Z,99754.77
2019-03-01T12:26:53.920Z,99755.63
2019-03-01T12:29:25.890Z,99759.27
2019-03-01T12:31:57.703Z,99752.23
2019-03-01T12:34:29.859Z,99752.96
2019-03-01T12:37:01.900Z,99761.73
2019-03-01T12:39:33.831Z,99754.94
2019-03-01T12:42:05.612Z,99761.44
2019-03-01T12:44:37.552Z,99767.66
2019-03-01T12:47:09.343Z,99756.00
2019-03-01T12:49:41.631Z,99756.84
2019-03-01T12:52:13.728Z,99752.09
2019-03-01T12:54:45.675Z,99749.84
2019-03-01T12:57:17.642Z,99757.58
2019-03-01T12:59:49.537Z,99760.95
2019-03-01T13:02:21.329Z,99753.97
2019-03-01T13:04:54.483Z,99756.98
2019-03-01T13:07:26.883Z,99754.20
2019-03-01T13:09:58.950Z,99752.24
2019-03-01T13:12:32.299Z,99749.45
2019-03-01T13:15:04.336Z,99750.50
2019-03-01T13:17:37.228Z,99754.30
2019-03-01T13:20:14.070Z,99754.46
2019-03-01T13:22:46.467Z,99753.47
2019-03-01T13:25:19.572Z,99764.34
2019-03-01T13:27:52.372Z,99761.64
2019-03-01T13:30:25.241Z,99762.05
2019-03-01T13:32:58.940Z,99764.55
2019-03-01T13:35:30.921Z,99755.63
2019-03-01T13:38:03.910Z,99766.53
2019-03-01T13:40:36.281Z,99770.72
2019-03-01T13:43:08.889Z,99774.96
2019-03-01T13:45:41.052Z,99768.52
2019-03-01T13:48:15.807Z,99773.40
2019-03-01T13:50:46.689Z,99771.66
2019-03-01T13:53:19.889Z,99773.66
2019-03-01T13:55:52.382Z,99770.86
2019-03-01T13:58:27.705Z,99767.10
2019-03-01T14:00:57.960Z,99768.25
2019-03-01T14:03:29.746Z,99767.31
2019-03-01T14:06:02.255Z,99763.78
2019-03-01T14:08:34.658Z,99760.34
2019-03-01T14:11:06.613Z,99776.06
2019-03-01T14:13:38.556Z,99770.47
2019-03-01T14:16:10.443Z,99762.72
2019-03-01T14:18:42.258Z,99773.08
2019-03-01T14:21:14.338Z,99769.34
2019-03-01T14:23:46.354Z,99764.73
2019-03-01T14:26:19.385Z,99765.12
2019-03-01T14:28:51.638Z,99773.21
2019-03-01T14:31:23.961Z,99770.99
2019-03-01T14:33:55.790Z,99780.73
2019-03-01T14:36:27.969Z,99786.59
2019-03-01T14:38:59.933Z,99784.80
2019-03-01T14:41:35.083Z,99795.82
2019-03-01T14:44:05.716Z,99786.52
2019-03-01T14:46:37.762Z,99795.80
2019-03-01T14:49:09.660Z,99791.73
2019-03-01T14:51:46.519Z,99795.77
2019-03-01T14:54:15.698Z,99794.82
2019-03-01T14:56:59.869Z,99796.72
2019-03-01T15:00:16.494Z,99800.52
2019-03-01T15:03:30.687Z,99803.33
2019-03-01T15:06:03.322Z,99815.10
2019-03-01T15:08:35.494Z,99813.64
2019-03-01T15:11:11.814Z,99801.50
2019-03-01T15:13:44.153Z,99808.89
2019-03-01T15:16:16.053Z,99805.03
2019-03-01T15:18:48.157Z,99809.28
2019-03-01T15:21:21.371Z,99812.89
2019-03-01T15:23:56.204Z,99818.66
2019-03-01T15:26:27.942Z,99810.52
2019-03-01T15:29:00.926Z,99815.61
2019-03-01T15:31:32.952Z,99799.48
2019-03-01T15:34:05.146Z,99813.38
2019-03-01T15:36:36.983Z,99813.99
2019-03-01T15:39:09.498Z,99817.66
2019-03-01T15:41:43.047Z,99824.49
2019-03-01T15:44:15.807Z,99829.78
2019-03-01T15:46:49.958Z,99823.34
2019-03-01T15:49:23.690Z,99833.53
2019-03-01T15:51:55.760Z,99828.58
2019-03-01T15:54:27.937Z,99830.96
2019-03-01T15:57:00.167Z,99831.79
2019-03-01T15:59:32.359Z,99846.80
2019-03-01T16:02:05.362Z,99851.72
2019-03-01T16:04:37.304Z,99855.98
2019-03-01T16:07:09.193Z,99864.87
2019-03-01T16:09:41.296Z,99871.70
2019-03-01T16:12:13.421Z,99872.47
2019-03-01T16:14:45.584Z,99882.48
2019-03-01T16:17:17.429Z,99881.64
2019-03-01T16:19:50.155Z,99884.45
2019-03-01T16:22:24.246Z,99891.23
2019-03-01T16:24:56.393Z,99885.34
2019-03-01T16:27:28.483Z,99898.95
2019-03-01T16:30:00.868Z,99896.41
2019-03-01T16:32:33.401Z,99902.28
2019-03-01T16:35:06.102Z,99914.59
2019-03-01T16:37:38.688Z,99916.48
2019-03-01T16:40:13.067Z,99918.83
2019-03-01T16:42:45.113Z,99919.89
2019-03-01T16:45:20.957Z,99924.46
2019-03-01T16:47:52.132Z,99919.39
2019-03-01T16:50:24.609Z,99925.25
2019-03-01T16:52:56.758Z,99924.48
2019-03-01T16:55:28.895Z,99932.48
2019-03-01T16:58:06.773Z,99931.25
2019-03-01T17:00:37.990Z,99935.70
2019-03-01T17:03:10.091Z,99936.73
2019-03-01T17:05:42.318Z,99936.41
2019-03-01T17:08:14.286Z,99939.73
2019-03-01T17:10:46.469Z,99943.32
2019-03-01T17:13:18.851Z,99939.48
2019-03-01T17:15:51.195Z,99949.88
2019-03-01T17:18:23.639Z,99954.69
2019-03-01T17:20:55.846Z,99961.52
2019-03-01T17:23:27.695Z,99956.27
2019-03-01T17:25:59.718Z,99960.04
2019-03-01T17:28:31.789Z,99962.77
2019-03-01T17:31:03.795Z,99962.95
2019-03-01T17:33:35.680Z,99965.30
2019-03-01T17:36:07.813Z,99969.31
2019-03-01T17:38:43.508Z,99973.03
2019-03-01T17:41:13.844Z,99984.44
2019-03-01T17:43:45.930Z,99972.88
2019-03-01T17:46:19.495Z,99979.77
2019-03-01T17:48:54.177Z,99976.98
2019-03-01T17:51:25.763Z,99984.06
2019-03-01T17:53:57.833Z,99983.66
2019-03-01T17:56:30.315Z,99988.85
2019-03-01T17:59:02.717Z,99988.33
2019-03-01T18:01:38.972Z,99992.09
2019-03-01T18:04:09.562Z,99991.70
2019-03-01T18:06:42.261Z,99995.52
2019-03-01T18:09:16.230Z,99995.98
2019-03-01T18:11:50.053Z,99993.11
2019-03-01T18:14:22.986Z,99995.95
2019-03-01T18:16:57.074Z,99999.20
2019-03-01T18:19:29.755Z,100001.28
2019-03-01T18:22:02.154Z,100006.33
2019-03-01T18:24:34.805Z,100011.41
2019-03-01T18:27:08.207Z,100008.47
2019-03-01T18:29:42.396Z,100001.20
2019-03-01T18:32:17.198Z,100005.38
2019-03-01T18:34:50.745Z,100006.30
2019-03-01T18:37:24.739Z,100020.49
2019-03-01T18:39:57.716Z,100025.05
2019-03-01T18:42:34.306Z,100019.16
2019-03-01T18:45:07.924Z,100031.50
2019-03-01T18:47:40.868Z,100033.69
2019-03-01T18:50:18.753Z,100043.25
2019-03-01T18:52:53.215Z,100049.01
2019-03-01T18:55:24.960Z,100046.98
2019-03-01T18:57:57.283Z,100054.66
2019-03-01T19:00:35.635Z,100061.52
2019-03-01T19:03:08.704Z,100071.52
2019-03-01T19:05:41.499Z,100066.13
2019-03-01T19:08:14.162Z,100075.09
2019-03-01T19:10:53.999Z,100079.09
2019-03-01T19:13:23.874Z,100082.91
2019-03-01T19:15:54.846Z,100083.86
2019-03-01T19:18:27.314Z,100099.42
2019-03-01T19:20:59.828Z,100089.80
2019-03-01T19:23:33.371Z,100090.48
2019-03-01T19:26:06.778Z,100095.72
2019-03-01T19:28:39.499Z,100091.69
2019-03-01T19:31:12.889Z,100095.16
2019-03-01T19:33:46.480Z,100106.50
2019-03-01T19:36:18.967Z,100104.64
2019-03-01T19:38:51.822Z,100118.72
2019-03-01T19:41:24.627Z,100117.55
2019-03-01T19:43:58.471Z,100124.23
2019-03-01T19:46:32.317Z,100122.52
2019-03-01T19:49:05.951Z,100121.82
2019-03-01T19:51:39.132Z,100121.73
2019-03-01T19:54:14.170Z,100130.78
2019-03-01T19:56:48.348Z,100126.16
2019-03-01T19:59:22.228Z,100138.03
2019-03-01T20:01:56.303Z,100138.58
2019-03-01T20:04:30.662Z,100144.98
2019-03-01T20:07:04.392Z,100150.33
2019-03-01T20:09:39.759Z,100160.06
2019-03-01T20:12:14.197Z,100165.02
2019-03-01T20:14:47.725Z,100172.03
2019-03-01T20:17:21.862Z,100170.61
2019-03-01T20:19:56.986Z,100176.02
2019-03-01T20:22:32.153Z,100169.41
2019-03-01T20:25:06.507Z,100174.75
2019-03-01T20:27:40.277Z,100175.54
2019-03-01T20:30:28.820Z,100176.11
2019-03-01T20:32:57.378Z,100183.11
2019-03-01T20:35:31.115Z,100182.55
2019-03-01T20:38:04.841Z,100196.87
2019-03-01T20:40:39.314Z,100189.94
2019-03-01T20:43:12.760Z,100194.55
2019-03-01T20:45:48.001Z,100184.32
2019-03-01T20:48:25.667Z,100188.20
2019-03-01T20:50:57.956Z,100190.58
2019-03-01T20:53:31.679Z,100189.22
2019-03-01T20:56:05.750Z,100200.70
2019-03-01T20:58:39.554Z,100192.78
2019-03-01T21:01:14.785Z,100194.66
2019-03-01T21:03:48.731Z,100205.38
2019-03-01T21:06:23.752Z,100207.09
2019-03-01T21:09:00.692Z,100203.22
2019-03-01T21:11:33.006Z,100202.27
2019-03-01T21:14:06.542Z,100202.55
2019-03-01T21:16:41.439Z,100205.85
2019-03-01T21:19:16.086Z,100208.33
2019-03-01T21:21:49.895Z,100212.28
2019-03-01T21:24:26.569Z,100217.80
2019-03-01T21:26:59.621Z,100215.74
2019-03-01T21:29:32.515Z,100226.23
2019-03-01T21:32:05.380Z,100224.86
2019-03-01T21:34:38.437Z,100222.91
2019-03-01T21:37:11.921Z,100228.20
2019-03-01T21:39:45.378Z,100233.95
2019-03-01T21:42:20.250Z,100236.16
2019-03-01T21:44:53.456Z,100240.98
2019-03-01T21:47:27.229Z,100243.67
2019-03-01T21:49:59.966Z,100250.37
2019-03-01T21:52:33.648Z,100249.85
2019-03-01T21:55:06.237Z,100263.13
2019-03-01T21:57:39.913Z,100259.11
2019-03-01T22:00:16.254Z,100264.52
2019-03-01T22:02:52.790Z,100271.33
2019-03-01T22:05:22.411Z,100268.71
2019-03-01T22:07:55.301Z,100275.20
2019-03-01T22:10:27.181Z,100279.60
2019-03-01T22:13:00.532Z,100281.41
2019-03-01T22:15:32.978Z,100285.64
2019-03-01T22:18:05.479Z,100279.83
2019-03-01T22:20:37.292Z,100282.41
2019-03-01T22:23:10.220Z,100281.37
2019-03-01T22:25:43.255Z,100286.99
2019-03-01T22:28:15.354Z,100290.14
2019-03-01T22:30:47.204Z,100290.33
2019-03-01T22:33:20.759Z,100298.97
2019-03-01T22:35:53.120Z,100288.23
2019-03-01T22:38:25.007Z,100291.64
2019-03-01T22:40:56.875Z,100298.81
2019-03-01T22:43:28.967Z,100294.10
2019-03-01T22:46:00.926Z,100299.77
2019-03-01T22:48:33.930Z,100305.52
2019-03-01T22:51:06.165Z,100312.23
2019-03-01T22:53:38.615Z,100316.16
2019-03-01T22:56:13.010Z,100314.42
2019-03-01T22:58:45.385Z,100318.69
2019-03-01T23:01:33.676Z,100318.31
2019-03-01T23:04:07.881Z,100322.13
2019-03-01T23:06:39.940Z,100318.66
2019-03-01T23:09:17.689Z,100321.99
2019-03-01T23:11:49.593Z,100324.84
2019-03-01T23:14:21.958Z,100322.77
2019-03-01T23:16:54.491Z,100329.78
2019-03-01T23:19:28.751Z,100336.23
2019-03-01T23:22:00.899Z,100343.08
2019-03-01T23:24:35.117Z,100345.70
2019-03-01T23:27:06.562Z,100348.13
2019-03-01T23:29:39.939Z,100345.48
2019-03-01T23:32:15.399Z,100339.03
2019-03-01T23:34:45.588Z,100345.16
2019-03-01T23:37:17.903Z,100345.48
2019-03-01T23:39:50.059Z,100347.31
2019-03-01T23:42:22.055Z,100353.38
2019-03-01T23:44:54.426Z,100354.28
2019-03-01T23:47:26.194Z,100354.77
2019-03-01T23:49:59.382Z,100349.63
2019-03-01T23:52:31.573Z,100363.80
2019-03-01T23:55:03.580Z,100365.81
2019-03-01T23:57:38.101Z,100363.29
